Galway, NY

2:56 AM EDT on July 29, 2015 (GMT -0400)
West Side Galway | | Change Station
CLOSE
Current Station
Personal Weather Station
Location: Galway, NY
Elevation: 906 ft
Nearby Weather Stations

Elev 906 ft 43.00 °N, 74.05 °W | Updated 1 minute ago

Partly Cloudy
Partly Cloudy
69.9 °F
Feels Like 69.9 °F
N
0.0
Wind Variable Wind from NW
Gusts 6.0 mph

Today
High -- | Low -- °F
--% Chance of Precip.
Yesterday
High -- | Low -- °F
Precip. -- in
5:43 AM 8:21 PM
Waxing Gibbous, 94% visible
Pressure 29.97 in
Visibility 10.0 miles
Clouds Mostly Cloudy 26000 ft
Dew Point 65 °F
Humidity 85%
Rainfall 0.00 in
Snow Depth Not available.
UV 0.0 out of 12
Pollen 6.00 out of 12
Air Quality Not available.
Flu Activity Not available.
METAR KALB 290651Z 00000KT 10SM BKN260 22/17 A2998 RMK AO2 SLP148 BKN V SCT T02220172

More Conditions Fewer Conditions

Pressure 29.97 in
Visibility 10.0 miles
Clouds Mostly Cloudy 26000 ft
Dew Point 65 °F
Humidity 85%
Rainfall 0.00 in
Snow Depth Not available.
UV 0.0 out of 12
Pollen 6.00 out of 12
Air Quality Not available.
Flu Activity Not available.
METAR KALB 290651Z 00000KT 10SM BKN260 22/17 A2998 RMK AO2 SLP148 BKN V SCT T02220172

More Conditions Fewer Conditions

10-Day Weather Forecast

×

Almanac

Astronomy

Jul. 29, 2015 Rise Set
Actual Time
Civil Twilight
Nautical Twilight
Astronomical Twilight
Moon
Length of Visible Light
Length of Day
Tomorrow will be .
, % of the Moon is Illuminated

Today's Extremes

State Highs State Lows

Community

WunderPhotos

Upload Photos

1,842,061 photos uploaded!

WunderBlogs® & News

Nearby

Air Quality

  Air Quality AQ Index Pollutant
Not available.

Snow Depth

Station Depth Elevation

Earthquake Activity

City Distance Mag. Time & Date
Minimum magnitude displayed is 2.5.

Coastal Water Temperatures

Place Temperature

Stations

Nearby Weather Stations

Station Location Temp. Windchill Dew Point Humidity Wind Precip. Elev Updated Type